sensor_id;sensor_type;location;lat;lon;timestamp;pressure;altitude;pressure_sealevel;temperature;humidity
13420;BME280;6781;58.440;15.470;2023-08-06T00:02:03;101162.88;;;12.82;100.00
13420;BME280;6781;58.440;15.470;2023-08-06T00:04:30;101075.66;;;12.33;100.00
13420;BME280;6781;58.440;15.470;2023-08-06T00:06:57;101154.81;;;12.85;100.00
13420;BME280;6781;58.440;15.470;2023-08-06T00:09:24;101180.84;;;12.85;100.00
13420;BME280;6781;58.440;15.470;2023-08-06T00:11:51;101102.25;;;12.48;100.00
13420;BME280;6781;58.440;15.470;2023-08-06T00:14:18;101162.41;;;12.77;100.00
13420;BME280;6781;58.440;15.470;2023-08-06T00:16:48;101129.06;;;12.60;100.00
13420;BME280;6781;58.440;15.470;2023-08-06T00:19:15;101171.06;;;12.66;100.00
13420;BME280;6781;58.440;15.470;2023-08-06T00:21:42;101124.84;;;12.48;100.00
13420;BME280;6781;58.440;15.470;2023-08-06T00:24:11;101155.34;;;12.57;100.00
13420;BME280;6781;58.440;15.470;2023-08-06T00:26:38;101177.09;;;12.67;100.00
13420;BME280;6781;58.440;15.470;2023-08-06T00:29:08;101126.03;;;12.32;100.00
13420;BME280;6781;58.440;15.470;2023-08-06T00:31:35;101145.53;;;12.60;100.00
13420;BME280;6781;58.440;15.470;2023-08-06T00:34:04;101105.94;;;12.23;100.00
13420;BME280;6781;58.440;15.470;2023-08-06T00:36:31;101151.09;;;12.45;100.00
13420;BME280;6781;58.440;15.470;2023-08-06T00:38:58;101087.66;;;12.02;100.00
13420;BME280;6781;58.440;15.470;2023-08-06T00:41:25;101129.56;;;12.20;100.00
13420;BME280;6781;58.440;15.470;2023-08-06T00:43:52;101045.66;;;11.73;100.00
13420;BME280;6781;58.440;15.470;2023-08-06T00:46:19;101148.97;;;12.38;100.00
13420;BME280;6781;58.440;15.470;2023-08-06T00:48:47;101095.19;;;11.94;100.00
13420;BME280;6781;58.440;15.470;2023-08-06T00:51:16;101157.13;;;12.34;100.00
13420;BME280;6781;58.440;15.470;2023-08-06T00:53:43;101172.84;;;12.32;100.00
13420;BME280;6781;58.440;15.470;2023-08-06T00:56:10;101167.88;;;12.29;100.00
13420;BME280;6781;58.440;15.470;2023-08-06T00:58:38;101096.28;;;11.92;100.00
13420;BME280;6781;58.440;15.470;2023-08-06T01:01:08;101086.81;;;11.80;100.00
13420;BME280;6781;58.440;15.470;2023-08-06T01:03:44;101107.72;;;11.78;100.00
13420;BME280;6781;58.440;15.470;2023-08-06T01:06:19;100991.03;;;11.18;100.00
13420;BME280;6781;58.440;15.470;2023-08-06T01:08:56;101086.81;;;11.80;100.00
13420;BME280;6781;58.440;15.470;2023-08-06T01:11:33;101068.22;;;11.73;100.00
13420;BME280;6781;58.440;15.470;2023-08-06T01:14:08;101127.00;;;11.98;100.00
13420;BME280;6781;58.440;15.470;2023-08-06T01:16:40;101038.31;;;11.45;100.00
13420;BME280;6781;58.440;15.470;2023-08-06T01:19:16;101183.00;;;12.24;100.00
13420;BME280;6781;58.440;15.470;2023-08-06T01:21:45;101151.56;;;12.16;100.00
13420;BME280;6781;58.440;15.470;2023-08-06T01:24:12;101142.50;;;12.11;100.00
13420;BME280;6781;58.440;15.470;2023-08-06T01:26:44;101153.00;;;11.98;100.00
13420;BME280;6781;58.440;15.470;2023-08-06T01:29:16;101069.25;;;11.59;100.00
13420;BME280;6781;58.440;15.470;2023-08-06T01:31:48;100978.19;;;10.81;100.00
13420;BME280;6781;58.440;15.470;2023-08-06T01:34:20;100966.09;;;10.93;100.00
13420;BME280;6781;58.440;15.470;2023-08-06T01:36:50;101152.53;;;12.04;100.00
13420;BME280;6781;58.440;15.470;2023-08-06T01:39:17;101025.50;;;11.20;100.00
13420;BME280;6781;58.440;15.470;2023-08-06T01:41:46;101134.31;;;11.93;100.00
13420;BME280;6781;58.440;15.470;2023-08-06T01:44:13;101147.09;;;12.07;100.00
13420;BME280;6781;58.440;15.470;2023-08-06T01:46:40;100934.31;;;10.78;100.00
13420;BME280;6781;58.440;15.470;2023-08-06T01:49:07;101129.13;;;12.04;100.00
13420;BME280;6781;58.440;15.470;2023-08-06T01:51:34;101144.00;;;12.02;100.00
13420;BME280;6781;58.440;15.470;2023-08-06T01:54:03;101085.34;;;11.76;100.00
13420;BME280;6781;58.440;15.470;2023-08-06T01:56:30;101140.59;;;12.01;100.00
13420;BME280;6781;58.440;15.470;2023-08-06T01:58:57;101101.94;;;11.86;100.00
13420;BME280;6781;58.440;15.470;2023-08-06T02:01:24;101074.94;;;11.76;100.00
13420;BME280;6781;58.440;15.470;2023-08-06T02:03:51;101048.22;;;11.51;100.00
13420;BME280;6781;58.440;15.470;2023-08-06T02:08:53;100992.22;;;11.14;100.00
13420;BME280;6781;58.440;15.470;2023-08-06T02:11:22;101126.16;;;11.97;100.00
13420;BME280;6781;58.440;15.470;2023-08-06T02:13:49;101048.47;;;11.48;100.00
13420;BME280;6781;58.440;15.470;2023-08-06T02:16:16;101125.09;;;12.00;100.00
13420;BME280;6781;58.440;15.470;2023-08-06T02:18:43;101122.34;;;11.79;100.00
13420;BME280;6781;58.440;15.470;2023-08-06T02:21:10;101124.03;;;12.02;100.00
13420;BME280;6781;58.440;15.470;2023-08-06T02:23:37;101085.31;;;11.53;100.00
13420;BME280;6781;58.440;15.470;2023-08-06T02:26:04;101140.94;;;11.97;100.00
13420;BME280;6781;58.440;15.470;2023-08-06T02:28:33;101132.31;;;11.96;100.00
13420;BME280;6781;58.440;15.470;2023-08-06T02:31:00;101011.34;;;11.24;100.00
13420;BME280;6781;58.440;15.470;2023-08-06T02:33:27;101101.41;;;11.69;100.00
13420;BME280;6781;58.440;15.470;2023-08-06T02:35:59;101092.31;;;11.64;100.00
13420;BME280;6781;58.440;15.470;2023-08-06T02:38:27;101098.31;;;11.53;100.00
13420;BME280;6781;58.440;15.470;2023-08-06T02:40:54;101108.84;;;11.63;100.00
13420;BME280;6781;58.440;15.470;2023-08-06T02:43:21;101107.97;;;11.51;100.00
13420;BME280;6781;58.440;15.470;2023-08-06T02:45:50;101069.91;;;11.28;100.00
13420;BME280;6781;58.440;15.470;2023-08-06T02:48:17;101110.31;;;11.43;100.00
13420;BME280;6781;58.440;15.470;2023-08-06T02:50:44;101118.34;;;11.40;100.00
13420;BME280;6781;58.440;15.470;2023-08-06T02:53:11;101122.34;;;11.44;100.00
13420;BME280;6781;58.440;15.470;2023-08-06T02:55:38;101174.38;;;11.66;100.00
13420;BME280;6781;58.440;15.470;2023-08-06T02:58:11;101012.31;;;10.64;100.00
13420;BME280;6781;58.440;15.470;2023-08-06T03:00:42;101167.38;;;11.56;100.00
13420;BME280;6781;58.440;15.470;2023-08-06T03:03:10;101060.88;;;10.86;100.00
13420;BME280;6781;58.440;15.470;2023-08-06T03:05:37;101178.59;;;11.56;100.00
13420;BME280;6781;58.440;15.470;2023-08-06T03:08:03;101150.66;;;11.36;100.00
13420;BME280;6781;58.440;15.470;2023-08-06T03:10:31;101098.72;;;11.01;100.00
13420;BME280;6781;58.440;15.470;2023-08-06T03:12:57;101158.72;;;11.44;100.00
13420;BME280;6781;58.440;15.470;2023-08-06T03:15:25;101121.72;;;11.29;100.00
13420;BME280;6781;58.440;15.470;2023-08-06T03:17:52;100978.69;;;10.27;100.00
13420;BME280;6781;58.440;15.470;2023-08-06T03:20:20;101151.28;;;11.39;100.00
13420;BME280;6781;58.440;15.470;2023-08-06T03:22:47;101138.47;;;11.25;100.00
13420;BME280;6781;58.440;15.470;2023-08-06T03:25:15;101187.78;;;11.49;100.00
13420;BME280;6781;58.440;15.470;2023-08-06T03:27:42;101119.69;;;11.22;100.00
13420;BME280;6781;58.440;15.470;2023-08-06T03:30:10;101088.94;;;11.04;100.00
13420;BME280;6781;58.440;15.470;2023-08-06T03:32:37;101166.91;;;11.51;100.00
13420;BME280;6781;58.440;15.470;2023-08-06T03:35:05;101147.28;;;11.47;100.00
13420;BME280;6781;58.440;15.470;2023-08-06T03:37:33;101086.56;;;11.01;100.00
13420;BME280;6781;58.440;15.470;2023-08-06T03:40:00;101123.09;;;11.22;100.00
13420;BME280;6781;58.440;15.470;2023-08-06T03:42:28;101122.28;;;11.22;100.00
13420;BME280;6781;58.440;15.470;2023-08-06T03:44:55;101066.72;;;11.00;100.00
13420;BME280;6781;58.440;15.470;2023-08-06T03:47:22;101096.31;;;11.22;100.00
13420;BME280;6781;58.440;15.470;2023-08-06T03:49:49;101124.00;;;11.45;100.00
13420;BME280;6781;58.440;15.470;2023-08-06T03:52:16;101125.94;;;11.54;100.00
13420;BME280;6781;58.440;15.470;2023-08-06T03:54:45;100984.94;;;10.60;100.00
13420;BME280;6781;58.440;15.470;2023-08-06T03:57:14;101130.31;;;11.54;100.00
13420;BME280;6781;58.440;15.470;2023-08-06T03:59:41;101119.53;;;11.47;100.00
13420;BME280;6781;58.440;15.470;2023-08-06T04:02:08;101136.81;;;11.59;100.00
13420;BME280;6781;58.440;15.470;2023-08-06T04:04:36;101131.38;;;11.62;100.00
13420;BME280;6781;58.440;15.470;2023-08-06T04:07:03;101012.69;;;10.94;100.00
13420;BME280;6781;58.440;15.470;2023-08-06T04:09:30;101131.75;;;11.69;100.00
13420;BME280;6781;58.440;15.470;2023-08-06T04:11:59;101012.72;;;11.05;100.00
13420;BME280;6781;58.440;15.470;2023-08-06T04:14:27;101133.78;;;11.77;100.00
13420;BME280;6781;58.440;15.470;2023-08-06T04:16:54;101077.41;;;11.55;100.00
13420;BME280;6781;58.440;15.470;2023-08-06T04:19:22;101050.09;;;11.38;100.00
13420;BME280;6781;58.440;15.470;2023-08-06T04:21:49;101051.97;;;11.36;100.00
13420;BME280;6781;58.440;15.470;2023-08-06T04:24:16;100939.25;;;10.70;100.00
13420;BME280;6781;58.440;15.470;2023-08-06T04:26:43;101081.03;;;11.41;100.00
13420;BME280;6781;58.440;15.470;2023-08-06T04:29:11;101067.19;;;11.29;100.00
13420;BME280;6781;58.440;15.470;2023-08-06T04:31:38;101164.09;;;11.89;100.00
13420;BME280;6781;58.440;15.470;2023-08-06T04:34:05;101097.06;;;11.35;100.00
13420;BME280;6781;58.440;15.470;2023-08-06T04:36:34;101098.03;;;11.45;100.00
13420;BME280;6781;58.440;15.470;2023-08-06T04:39:01;101099.25;;;11.52;100.00
13420;BME280;6781;58.440;15.470;2023-08-06T04:41:29;101064.69;;;11.28;100.00
13420;BME280;6781;58.440;15.470;2023-08-06T04:43:56;101137.72;;;11.82;100.00
13420;BME280;6781;58.440;15.470;2023-08-06T04:46:25;101096.38;;;11.44;100.00
13420;BME280;6781;58.440;15.470;2023-08-06T04:48:52;101235.28;;;12.10;100.00
13420;BME280;6781;58.440;15.470;2023-08-06T04:51:19;101228.19;;;12.12;100.00
13420;BME280;6781;58.440;15.470;2023-08-06T04:53:46;101220.38;;;12.12;100.00
13420;BME280;6781;58.440;15.470;2023-08-06T04:56:13;101183.22;;;11.88;100.00
13420;BME280;6781;58.440;15.470;2023-08-06T04:58:41;101182.44;;;11.74;100.00
13420;BME280;6781;58.440;15.470;2023-08-06T05:01:08;101215.38;;;11.98;100.00
13420;BME280;6781;58.440;15.470;2023-08-06T05:03:37;101241.63;;;12.17;100.00
13420;BME280;6781;58.440;15.470;2023-08-06T05:06:03;101159.28;;;11.71;100.00
13420;BME280;6781;58.440;15.470;2023-08-06T05:08:31;101193.19;;;12.05;100.00
13420;BME280;6781;58.440;15.470;2023-08-06T05:10:58;101231.03;;;12.31;100.00
13420;BME280;6781;58.440;15.470;2023-08-06T05:13:25;101197.69;;;12.36;100.00
13420;BME280;6781;58.440;15.470;2023-08-06T05:15:53;101116.25;;;11.91;100.00
13420;BME280;6781;58.440;15.470;2023-08-06T05:18:20;101192.13;;;12.41;100.00
13420;BME280;6781;58.440;15.470;2023-08-06T05:20:49;101207.03;;;12.50;100.00
13420;BME280;6781;58.440;15.470;2023-08-06T05:23:16;101130.16;;;12.24;100.00
13420;BME280;6781;58.440;15.470;2023-08-06T05:25:43;101087.00;;;11.77;100.00
13420;BME280;6781;58.440;15.470;2023-08-06T05:28:12;101145.81;;;12.13;100.00
13420;BME280;6781;58.440;15.470;2023-08-06T05:30:39;101228.19;;;12.68;100.00
13420;BME280;6781;58.440;15.470;2023-08-06T05:33:06;101205.84;;;12.77;100.00
13420;BME280;6781;58.440;15.470;2023-08-06T05:35:33;101122.97;;;12.16;100.00
13420;BME280;6781;58.440;15.470;2023-08-06T05:38:02;101162.91;;;12.26;100.00
13420;BME280;6781;58.440;15.470;2023-08-06T05:40:29;101108.41;;;12.25;100.00
13420;BME280;6781;58.440;15.470;2023-08-06T05:42:56;101240.25;;;13.02;100.00
13420;BME280;6781;58.440;15.470;2023-08-06T05:45:23;101074.41;;;12.05;100.00
13420;BME280;6781;58.440;15.470;2023-08-06T05:47:50;101253.38;;;13.23;100.00
13420;BME280;6781;58.440;15.470;2023-08-06T05:50:19;101138.75;;;12.69;100.00
13420;BME280;6781;58.440;15.470;2023-08-06T05:52:46;101193.84;;;13.19;100.00
13420;BME280;6781;58.440;15.470;2023-08-06T05:55:15;101150.38;;;13.08;100.00
13420;BME280;6781;58.440;15.470;2023-08-06T05:57:42;101218.38;;;13.48;100.00
13420;BME280;6781;58.440;15.470;2023-08-06T06:00:10;101188.13;;;13.25;100.00
13420;BME280;6781;58.440;15.470;2023-08-06T06:02:37;101232.72;;;13.43;100.00
13420;BME280;6781;58.440;15.470;2023-08-06T06:05:04;101313.56;;;13.95;100.00
13420;BME280;6781;58.440;15.470;2023-08-06T06:07:31;101309.66;;;13.90;100.00
13420;BME280;6781;58.440;15.470;2023-08-06T06:09:58;101410.63;;;14.42;100.00
13420;BME280;6781;58.440;15.470;2023-08-06T06:12:27;101402.25;;;14.27;100.00
13420;BME280;6781;58.440;15.470;2023-08-06T06:14:54;101434.00;;;14.44;100.00
13420;BME280;6781;58.440;15.470;2023-08-06T06:17:21;101478.50;;;14.74;100.00
13420;BME280;6781;58.440;15.470;2023-08-06T06:19:48;101481.63;;;14.89;100.00
13420;BME280;6781;58.440;15.470;2023-08-06T06:22:15;101420.97;;;14.64;100.00
13420;BME280;6781;58.440;15.470;2023-08-06T06:24:42;101451.69;;;14.93;100.00
13420;BME280;6781;58.440;15.470;2023-08-06T06:27:09;101289.97;;;13.97;100.00
13420;BME280;6781;58.440;15.470;2023-08-06T06:29:38;101372.63;;;14.70;100.00
13420;BME280;6781;58.440;15.470;2023-08-06T06:32:06;101265.72;;;14.27;100.00
13420;BME280;6781;58.440;15.470;2023-08-06T06:34:33;101311.97;;;14.87;100.00
13420;BME280;6781;58.440;15.470;2023-08-06T06:37:00;101280.88;;;14.84;100.00
13420;BME280;6781;58.440;15.470;2023-08-06T06:39:27;101273.19;;;15.23;100.00
13420;BME280;6781;58.440;15.470;2023-08-06T06:41:56;101256.28;;;15.46;100.00
13420;BME280;6781;58.440;15.470;2023-08-06T06:44:24;101201.94;;;15.40;100.00
13420;BME280;6781;58.440;15.470;2023-08-06T06:46:53;101133.69;;;15.24;100.00
13420;BME280;6781;58.440;15.470;2023-08-06T06:49:20;101148.25;;;15.55;100.00
13420;BME280;6781;58.440;15.470;2023-08-06T06:51:47;101090.84;;;15.63;100.00
13420;BME280;6781;58.440;15.470;2023-08-06T06:54:15;101028.09;;;15.63;100.00
13420;BME280;6781;58.440;15.470;2023-08-06T06:56:42;100919.84;;;15.10;100.00
13420;BME280;6781;58.440;15.470;2023-08-06T06:59:09;101024.72;;;16.08;100.00
13420;BME280;6781;58.440;15.470;2023-08-06T07:01:36;100959.44;;;15.89;100.00
13420;BME280;6781;58.440;15.470;2023-08-06T07:04:05;100943.44;;;15.92;100.00
13420;BME280;6781;58.440;15.470;2023-08-06T07:06:32;100926.34;;;16.15;100.00
13420;BME280;6781;58.440;15.470;2023-08-06T07:08:59;100893.28;;;16.32;100.00
13420;BME280;6781;58.440;15.470;2023-08-06T07:11:26;100867.44;;;16.55;100.00
13420;BME280;6781;58.440;15.470;2023-08-06T07:13:56;100859.06;;;16.69;100.00
13420;BME280;6781;58.440;15.470;2023-08-06T07:16:25;100836.47;;;16.68;100.00
13420;BME280;6781;58.440;15.470;2023-08-06T07:18:53;100771.22;;;16.57;100.00
13420;BME280;6781;58.440;15.470;2023-08-06T07:21:22;100739.47;;;16.60;100.00
13420;BME280;6781;58.440;15.470;2023-08-06T07:23:49;100673.72;;;16.29;100.00
13420;BME280;6781;58.440;15.470;2023-08-06T07:26:16;100670.34;;;16.45;100.00
13420;BME280;6781;58.440;15.470;2023-08-06T07:28:43;100662.25;;;16.64;100.00
13420;BME280;6781;58.440;15.470;2023-08-06T07:31:10;100674.44;;;16.81;100.00
13420;BME280;6781;58.440;15.470;2023-08-06T07:33:38;100671.97;;;16.80;100.00
13420;BME280;6781;58.440;15.470;2023-08-06T07:36:09;100620.97;;;16.58;100.00
13420;BME280;6781;58.440;15.470;2023-08-06T07:38:38;100667.56;;;16.80;100.00
13420;BME280;6781;58.440;15.470;2023-08-06T07:41:05;100636.75;;;16.66;100.00
13420;BME280;6781;58.440;15.470;2023-08-06T07:43:32;100632.00;;;16.70;100.00
13420;BME280;6781;58.440;15.470;2023-08-06T07:46:01;100620.44;;;16.97;100.00
13420;BME280;6781;58.440;15.470;2023-08-06T07:48:28;100612.56;;;16.88;100.00
13420;BME280;6781;58.440;15.470;2023-08-06T07:50:56;100420.56;;;15.89;100.00
13420;BME280;6781;58.440;15.470;2023-08-06T07:53:24;100609.94;;;16.97;100.00
13420;BME280;6781;58.440;15.470;2023-08-06T07:55:54;100599.16;;;17.00;100.00
13420;BME280;6781;58.440;15.470;2023-08-06T07:58:21;100548.19;;;16.70;100.00
13420;BME280;6781;58.440;15.470;2023-08-06T08:00:48;100561.06;;;16.63;100.00
13420;BME280;6781;58.440;15.470;2023-08-06T08:03:15;100585.03;;;16.84;100.00
13420;BME280;6781;58.440;15.470;2023-08-06T08:05:43;100540.41;;;16.44;100.00
13420;BME280;6781;58.440;15.470;2023-08-06T08:08:10;100591.56;;;16.72;100.00
13420;BME280;6781;58.440;15.470;2023-08-06T08:10:38;100535.19;;;16.52;100.00
13420;BME280;6781;58.440;15.470;2023-08-06T08:13:06;100385.81;;;15.62;100.00
13420;BME280;6781;58.440;15.470;2023-08-06T08:15:34;100588.16;;;16.88;100.00
13420;BME280;6781;58.440;15.470;2023-08-06T08:18:01;100592.59;;;16.96;100.00
13420;BME280;6781;58.440;15.470;2023-08-06T08:20:28;100524.03;;;16.34;100.00
13420;BME280;6781;58.440;15.470;2023-08-06T08:22:58;100531.28;;;16.56;100.00
13420;BME280;6781;58.440;15.470;2023-08-06T08:25:26;100577.34;;;16.83;100.00
13420;BME280;6781;58.440;15.470;2023-08-06T08:27:53;100578.19;;;17.00;100.00
13420;BME280;6781;58.440;15.470;2023-08-06T08:30:22;100343.97;;;15.54;100.00
13420;BME280;6781;58.440;15.470;2023-08-06T08:32:50;100543.28;;;16.91;100.00
13420;BME280;6781;58.440;15.470;2023-08-06T08:35:17;100487.72;;;16.47;100.00
13420;BME280;6781;58.440;15.470;2023-08-06T08:37:45;100565.91;;;17.08;100.00
13420;BME280;6781;58.440;15.470;2023-08-06T08:40:14;100427.50;;;16.22;100.00
13420;BME280;6781;58.440;15.470;2023-08-06T08:42:41;100568.00;;;17.37;100.00
13420;BME280;6781;58.440;15.470;2023-08-06T08:45:12;100489.91;;;17.08;100.00
13420;BME280;6781;58.440;15.470;2023-08-06T08:47:42;100531.00;;;17.32;100.00
13420;BME280;6781;58.440;15.470;2023-08-06T08:50:10;100557.16;;;17.48;100.00
13420;BME280;6781;58.440;15.470;2023-08-06T08:52:39;100508.38;;;17.31;100.00
13420;BME280;6781;58.440;15.470;2023-08-06T08:55:08;100469.72;;;17.25;100.00
13420;BME280;6781;58.440;15.470;2023-08-06T08:57:35;100527.47;;;17.72;100.00
13420;BME280;6781;58.440;15.470;2023-08-06T09:00:02;100523.38;;;17.70;100.00
13420;BME280;6781;58.440;15.470;2023-08-06T09:02:32;100486.31;;;17.56;100.00
13420;BME280;6781;58.440;15.470;2023-08-06T09:05:01;100376.47;;;16.51;100.00
13420;BME280;6781;58.440;15.470;2023-08-06T09:07:35;100501.78;;;17.43;100.00
13420;BME280;6781;58.440;15.470;2023-08-06T09:10:03;100490.59;;;17.57;100.00
13420;BME280;6781;58.440;15.470;2023-08-06T09:12:30;100419.28;;;17.15;100.00
13420;BME280;6781;58.440;15.470;2023-08-06T09:14:57;100496.47;;;17.60;100.00
13420;BME280;6781;58.440;15.470;2023-08-06T09:17:24;100433.03;;;17.25;100.00
13420;BME280;6781;58.440;15.470;2023-08-06T09:19:53;100409.44;;;17.25;100.00
13420;BME280;6781;58.440;15.470;2023-08-06T09:22:23;100357.78;;;16.78;100.00
13420;BME280;6781;58.440;15.470;2023-08-06T09:24:52;100403.25;;;17.02;100.00
13420;BME280;6781;58.440;15.470;2023-08-06T09:27:19;100379.69;;;17.02;100.00
13420;BME280;6781;58.440;15.470;2023-08-06T09:29:49;100462.72;;;17.56;100.00
13420;BME280;6781;58.440;15.470;2023-08-06T09:32:16;100469.56;;;17.74;100.00
13420;BME280;6781;58.440;15.470;2023-08-06T09:34:43;100448.63;;;17.66;100.00
13420;BME280;6781;58.440;15.470;2023-08-06T09:37:11;100442.09;;;17.45;100.00
13420;BME280;6781;58.440;15.470;2023-08-06T09:39:40;100443.25;;;17.43;100.00
13420;BME280;6781;58.440;15.470;2023-08-06T09:42:08;100395.91;;;16.97;100.00
13420;BME280;6781;58.440;15.470;2023-08-06T09:44:35;100343.84;;;16.94;100.00
13420;BME280;6781;58.440;15.470;2023-08-06T09:47:04;100342.19;;;17.01;100.00
13420;BME280;6781;58.440;15.470;2023-08-06T09:49:41;100426.41;;;17.37;100.00
13420;BME280;6781;58.440;15.470;2023-08-06T09:52:11;100424.72;;;17.44;100.00
13420;BME280;6781;58.440;15.470;2023-08-06T09:54:40;100293.63;;;16.58;100.00
13420;BME280;6781;58.440;15.470;2023-08-06T09:57:11;100420.50;;;17.35;100.00
13420;BME280;6781;58.440;15.470;2023-08-06T09:59:39;100348.63;;;16.82;100.00
13420;BME280;6781;58.440;15.470;2023-08-06T10:02:12;100337.50;;;16.72;100.00
13420;BME280;6781;58.440;15.470;2023-08-06T10:04:40;100286.13;;;16.47;100.00
13420;BME280;6781;58.440;15.470;2023-08-06T10:07:09;100415.16;;;17.29;100.00
13420;BME280;6781;58.440;15.470;2023-08-06T10:09:36;100409.75;;;17.22;100.00
13420;BME280;6781;58.440;15.470;2023-08-06T10:12:05;100413.50;;;17.28;100.00
13420;BME280;6781;58.440;15.470;2023-08-06T10:14:33;100213.56;;;16.00;100.00
13420;BME280;6781;58.440;15.470;2023-08-06T10:17:03;100408.13;;;17.21;100.00
13420;BME280;6781;58.440;15.470;2023-08-06T10:19:31;100355.47;;;16.91;100.00
13420;BME280;6781;58.440;15.470;2023-08-06T10:22:18;100415.75;;;17.39;100.00
13420;BME280;6781;58.440;15.470;2023-08-06T10:24:48;100417.81;;;17.51;100.00
13420;BME280;6781;58.440;15.470;2023-08-06T10:27:21;100420.16;;;17.38;100.00
13420;BME280;6781;58.440;15.470;2023-08-06T10:29:49;100432.28;;;17.39;100.00
13420;BME280;6781;58.440;15.470;2023-08-06T10:32:16;100376.75;;;16.88;100.00
13420;BME280;6781;58.440;15.470;2023-08-06T10:34:55;100354.50;;;16.84;100.00
13420;BME280;6781;58.440;15.470;2023-08-06T10:37:23;100418.28;;;17.24;100.00
13420;BME280;6781;58.440;15.470;2023-08-06T10:39:50;100421.81;;;17.39;100.00
13420;BME280;6781;58.440;15.470;2023-08-06T10:42:27;100396.50;;;17.23;100.00
13420;BME280;6781;58.440;15.470;2023-08-06T10:45:16;100426.75;;;17.34;100.00
13420;BME280;6781;58.440;15.470;2023-08-06T10:47:44;100311.97;;;16.58;100.00
13420;BME280;6781;58.440;15.470;2023-08-06T10:50:16;100315.22;;;16.76;100.00
13420;BME280;6781;58.440;15.470;2023-08-06T10:52:43;100429.97;;;17.44;100.00
13420;BME280;6781;58.440;15.470;2023-08-06T10:55:10;100408.66;;;17.47;100.00
13420;BME280;6781;58.440;15.470;2023-08-06T10:57:40;100440.41;;;17.61;100.00
13420;BME280;6781;58.440;15.470;2023-08-06T11:00:08;100431.28;;;17.48;100.00
13420;BME280;6781;58.440;15.470;2023-08-06T11:02:38;100441.13;;;17.46;100.00
13420;BME280;6781;58.440;15.470;2023-08-06T11:05:06;100447.16;;;17.55;100.00
13420;BME280;6781;58.440;15.470;2023-08-06T11:07:34;100435.91;;;17.38;100.00
13420;BME280;6781;58.440;15.470;2023-08-06T11:10:02;100425.47;;;17.30;100.00
13420;BME280;6781;58.440;15.470;2023-08-06T11:12:30;100348.63;;;16.74;100.00
13420;BME280;6781;58.440;15.470;2023-08-06T11:14:58;100388.16;;;17.12;100.00
13420;BME280;6781;58.440;15.470;2023-08-06T11:17:27;100432.03;;;17.26;100.00
13420;BME280;6781;58.440;15.470;2023-08-06T11:19:55;100221.09;;;15.87;100.00
13420;BME280;6781;58.440;15.470;2023-08-06T11:22:26;100295.00;;;16.21;100.00
13420;BME280;6781;58.440;15.470;2023-08-06T11:25:07;100427.47;;;17.20;100.00
13420;BME280;6781;58.440;15.470;2023-08-06T11:27:47;100307.91;;;16.39;100.00
13420;BME280;6781;58.440;15.470;2023-08-06T11:30:18;100335.56;;;16.34;100.00
13420;BME280;6781;58.440;15.470;2023-08-06T11:32:47;100448.94;;;17.15;100.00
13420;BME280;6781;58.440;15.470;2023-08-06T11:35:20;100348.81;;;16.32;100.00
13420;BME280;6781;58.440;15.470;2023-08-06T11:37:58;100373.69;;;16.28;100.00
13420;BME280;6781;58.440;15.470;2023-08-06T11:40:29;100470.09;;;16.73;100.00
13420;BME280;6781;58.440;15.470;2023-08-06T11:43:05;100368.59;;;16.02;100.00
13420;BME280;6781;58.440;15.470;2023-08-06T11:45:46;100523.78;;;16.69;100.00
13420;BME280;6781;58.440;15.470;2023-08-06T11:48:25;100458.75;;;16.32;100.00
13420;BME280;6781;58.440;15.470;2023-08-06T11:51:00;100426.16;;;16.18;100.00
13420;BME280;6781;58.440;15.470;2023-08-06T11:53:36;100552.97;;;16.90;100.00
13420;BME280;6781;58.440;15.470;2023-08-06T11:56:13;100583.25;;;16.93;100.00
13420;BME280;6781;58.440;15.470;2023-08-06T11:58:52;100595.50;;;16.76;100.00
13420;BME280;6781;58.440;15.470;2023-08-06T12:01:22;100467.13;;;15.85;100.00
13420;BME280;6781;58.440;15.470;2023-08-06T12:04:00;100610.13;;;16.45;100.00
13420;BME280;6781;58.440;15.470;2023-08-06T12:06:27;100547.50;;;16.09;100.00
13420;BME280;6781;58.440;15.470;2023-08-06T12:09:00;100520.19;;;15.70;100.00
13420;BME280;6781;58.440;15.470;2023-08-06T12:11:32;100552.22;;;15.72;100.00
13420;BME280;6781;58.440;15.470;2023-08-06T12:14:03;100696.09;;;16.57;100.00
13420;BME280;6781;58.440;15.470;2023-08-06T12:16:32;100674.94;;;15.91;100.00
13420;BME280;6781;58.440;15.470;2023-08-06T12:19:01;100641.25;;;15.44;100.00
13420;BME280;6781;58.440;15.470;2023-08-06T12:21:30;100708.34;;;15.97;100.00
13420;BME280;6781;58.440;15.470;2023-08-06T12:23:57;100713.59;;;15.79;100.00
13420;BME280;6781;58.440;15.470;2023-08-06T12:26:24;100833.53;;;16.27;100.00
13420;BME280;6781;58.440;15.470;2023-08-06T12:28:51;100846.50;;;15.93;100.00
13420;BME280;6781;58.440;15.470;2023-08-06T12:31:20;100912.72;;;15.94;100.00
13420;BME280;6781;58.440;15.470;2023-08-06T12:33:48;100889.88;;;15.41;100.00
13420;BME280;6781;58.440;15.470;2023-08-06T12:36:16;100959.09;;;15.74;100.00
13420;BME280;6781;58.440;15.470;2023-08-06T12:38:43;101007.09;;;15.83;100.00
13420;BME280;6781;58.440;15.470;2023-08-06T12:41:10;100824.56;;;14.67;100.00
13420;BME280;6781;58.440;15.470;2023-08-06T12:43:37;100946.50;;;15.23;100.00
13420;BME280;6781;58.440;15.470;2023-08-06T12:46:04;100914.66;;;15.00;100.00
13420;BME280;6781;58.440;15.470;2023-08-06T12:48:31;100818.44;;;14.29;100.00
13420;BME280;6781;58.440;15.470;2023-08-06T12:50:59;100907.72;;;14.62;100.00